Terminal Aerodrome Forecast
Issued by NWS

Home | Current Version | Previous Version | Text Only | Print | Product List | Glossary On
Versions: 1 2 3 4 5 6 7 8 9 10 11 12 13 14 15 16 17 18 19
000
FTUS44 KLZK 240100 AAA
TAFLIT
TAF AMD
KLIT 240101Z 2401/2424 24005KT P6SM -RA BKN040
     FM240500 30005KT P6SM SCT150 SCT250
     FM241200 03006KT P6SM SCT250=

USA.gov is the U.S. government's official web portal to all federal, state and local government web resources and services.